sensor_id;sensor_type;location;lat;lon;timestamp;pressure;altitude;pressure_sealevel;temperature
64600;BMP280;6553;48.412;9.514;2023-07-28T00:02:10;71879.84;;;21.87
64600;BMP280;6553;48.412;9.514;2023-07-28T00:04:37;71884.63;;;21.91
64600;BMP280;6553;48.412;9.514;2023-07-28T00:07:04;71881.31;;;21.91
64600;BMP280;6553;48.412;9.514;2023-07-28T00:09:30;71883.56;;;21.90
64600;BMP280;6553;48.412;9.514;2023-07-28T00:11:58;71882.50;;;21.89
64600;BMP280;6553;48.412;9.514;2023-07-28T00:14:24;71880.38;;;21.87
64600;BMP280;6553;48.412;9.514;2023-07-28T00:16:52;71873.22;;;21.86
64600;BMP280;6553;48.412;9.514;2023-07-28T00:19:18;71877.59;;;21.87
64600;BMP280;6553;48.412;9.514;2023-07-28T00:21:44;71879.97;;;21.84
64600;BMP280;6553;48.412;9.514;2023-07-28T00:24:10;71872.69;;;21.85
64600;BMP280;6553;48.412;9.514;2023-07-28T00:26:36;71873.34;;;21.83
64600;BMP280;6553;48.412;9.514;2023-07-28T00:29:01;71870.44;;;21.86
64600;BMP280;6553;48.412;9.514;2023-07-28T00:31:30;71875.47;;;21.85
64600;BMP280;6553;48.412;9.514;2023-07-28T00:33:56;71874.94;;;21.85
64600;BMP280;6553;48.412;9.514;2023-07-28T00:36:23;71872.81;;;21.83
64600;BMP280;6553;48.412;9.514;2023-07-28T00:38:48;71868.31;;;21.84
64600;BMP280;6553;48.412;9.514;2023-07-28T00:41:15;71872.69;;;21.85
64600;BMP280;6553;48.412;9.514;2023-07-28T00:43:41;71869.50;;;21.82
64600;BMP280;6553;48.412;9.514;2023-07-28T00:46:08;71882.09;;;21.86
64600;BMP280;6553;48.412;9.514;2023-07-28T00:48:34;71877.72;;;21.85
64600;BMP280;6553;48.412;9.514;2023-07-28T00:51:00;71877.72;;;21.85
64600;BMP280;6553;48.412;9.514;2023-07-28T00:53:27;71872.28;;;21.82
64600;BMP280;6553;48.412;9.514;2023-07-28T00:55:53;71879.97;;;21.84
64600;BMP280;6553;48.412;9.514;2023-07-28T00:58:19;71869.50;;;21.82
64600;BMP280;6553;48.412;9.514;2023-07-28T01:00:45;71874.94;;;21.85
64600;BMP280;6553;48.412;9.514;2023-07-28T01:03:11;71878.25;;;21.85
64600;BMP280;6553;48.412;9.514;2023-07-28T01:06:02;71875.47;;;21.85
64600;BMP280;6553;48.412;9.514;2023-07-28T01:08:45;71876.66;;;21.84
64600;BMP280;6553;48.412;9.514;2023-07-28T01:11:12;71872.81;;;21.83
64600;BMP280;6553;48.412;9.514;2023-07-28T01:13:38;71872.28;;;21.82
64600;BMP280;6553;48.412;9.514;2023-07-28T01:16:03;71878.38;;;21.83
64600;BMP280;6553;48.412;9.514;2023-07-28T01:18:29;71869.63;;;21.80
64600;BMP280;6553;48.412;9.514;2023-07-28T01:20:57;71877.19;;;21.84
64600;BMP280;6553;48.412;9.514;2023-07-28T01:23:41;71875.06;;;21.82
64600;BMP280;6553;48.412;9.514;2023-07-28T01:26:12;71874.41;;;21.84
64600;BMP280;6553;48.412;9.514;2023-07-28T01:28:40;71876.13;;;21.83
64600;BMP280;6553;48.412;9.514;2023-07-28T01:31:08;71878.38;;;21.83
64600;BMP280;6553;48.412;9.514;2023-07-28T01:33:34;71875.72;;;21.80
64600;BMP280;6553;48.412;9.514;2023-07-28T01:36:00;71876.78;;;21.81
64600;BMP280;6553;48.412;9.514;2023-07-28T01:38:27;71869.50;;;21.82
64600;BMP280;6553;48.412;9.514;2023-07-28T01:40:53;71872.94;;;21.80
64600;BMP280;6553;48.412;9.514;2023-07-28T01:43:19;71875.19;;;21.80
64600;BMP280;6553;48.412;9.514;2023-07-28T01:45:45;71875.19;;;21.80
64600;BMP280;6553;48.412;9.514;2023-07-28T01:48:11;71870.69;;;21.81
64600;BMP280;6553;48.412;9.514;2023-07-28T01:50:38;71875.72;;;21.80
64600;BMP280;6553;48.412;9.514;2023-07-28T01:53:05;71870.16;;;21.80
64600;BMP280;6553;48.412;9.514;2023-07-28T01:55:31;71866.44;;;21.77
64600;BMP280;6553;48.412;9.514;2023-07-28T01:58:00;71870.16;;;21.80
64600;BMP280;6553;48.412;9.514;2023-07-28T02:00:27;71872.41;;;21.80
64600;BMP280;6553;48.412;9.514;2023-07-28T02:02:53;71864.19;;;21.77
64600;BMP280;6553;48.412;9.514;2023-07-28T02:05:19;71871.88;;;21.79
64600;BMP280;6553;48.412;9.514;2023-07-28T02:07:46;71863.13;;;21.76
64600;BMP280;6553;48.412;9.514;2023-07-28T02:10:12;71869.09;;;21.79
64600;BMP280;6553;48.412;9.514;2023-07-28T02:12:39;71866.31;;;21.79
64600;BMP280;6553;48.412;9.514;2023-07-28T02:15:06;71865.25;;;21.78
64600;BMP280;6553;48.412;9.514;2023-07-28T02:17:33;71864.84;;;21.75
64600;BMP280;6553;48.412;9.514;2023-07-28T02:19:58;71868.56;;;21.79
64600;BMP280;6553;48.412;9.514;2023-07-28T02:22:24;71857.16;;;21.73
64600;BMP280;6553;48.412;9.514;2023-07-28T02:24:50;71870.28;;;21.78
64600;BMP280;6553;48.412;9.514;2023-07-28T02:27:16;71870.81;;;21.78
64600;BMP280;6553;48.412;9.514;2023-07-28T02:29:41;71874.66;;;21.79
64600;BMP280;6553;48.412;9.514;2023-07-28T02:32:08;71868.66;;;21.76
64600;BMP280;6553;48.412;9.514;2023-07-28T02:34:34;71869.75;;;21.77
64600;BMP280;6553;48.412;9.514;2023-07-28T02:37:00;71872.53;;;21.77
64600;BMP280;6553;48.412;9.514;2023-07-28T02:39:26;71868.16;;;21.76
64600;BMP280;6553;48.412;9.514;2023-07-28T02:41:51;71866.44;;;21.77
64600;BMP280;6553;48.412;9.514;2023-07-28T02:44:17;71867.63;;;21.75
64600;BMP280;6553;48.412;9.514;2023-07-28T02:46:43;71864.41;;;21.72
64600;BMP280;6553;48.412;9.514;2023-07-28T02:49:09;71864.84;;;21.75
64600;BMP280;6553;48.412;9.514;2023-07-28T02:51:34;71865.91;;;21.76
64600;BMP280;6553;48.412;9.514;2023-07-28T02:54:00;71862.72;;;21.73
64600;BMP280;6553;48.412;9.514;2023-07-28T02:56:26;71866.56;;;21.74
64600;BMP280;6553;48.412;9.514;2023-07-28T02:58:52;71866.56;;;21.74
64600;BMP280;6553;48.412;9.514;2023-07-28T03:01:18;71864.31;;;21.75
64600;BMP280;6553;48.412;9.514;2023-07-28T03:03:45;71866.03;;;21.74
64600;BMP280;6553;48.412;9.514;2023-07-28T03:06:12;71860.47;;;21.74
64600;BMP280;6553;48.412;9.514;2023-07-28T03:08:39;71866.56;;;21.74
64600;BMP280;6553;48.412;9.514;2023-07-28T03:11:24;71874.91;;;21.74
64600;BMP280;6553;48.412;9.514;2023-07-28T03:13:50;71867.09;;;21.75
64600;BMP280;6553;48.412;9.514;2023-07-28T03:16:15;71863.78;;;21.74
64600;BMP280;6553;48.412;9.514;2023-07-28T03:18:42;71863.25;;;21.74
64600;BMP280;6553;48.412;9.514;2023-07-28T03:21:11;71860.69;;;21.69
64600;BMP280;6553;48.412;9.514;2023-07-28T03:23:37;71864.41;;;21.72
64600;BMP280;6553;48.412;9.514;2023-07-28T03:26:03;71862.19;;;21.73
64600;BMP280;6553;48.412;9.514;2023-07-28T03:28:28;71868.28;;;21.73
64600;BMP280;6553;48.412;9.514;2023-07-28T03:30:54;71855.69;;;21.69
64600;BMP280;6553;48.412;9.514;2023-07-28T03:33:20;71862.31;;;21.70
64600;BMP280;6553;48.412;9.514;2023-07-28T03:35:45;71860.59;;;21.71
64600;BMP280;6553;48.412;9.514;2023-07-28T03:38:12;71860.59;;;21.71
64600;BMP280;6553;48.412;9.514;2023-07-28T03:40:39;71861.38;;;21.67
64600;BMP280;6553;48.412;9.514;2023-07-28T03:43:05;71857.84;;;21.71
64600;BMP280;6553;48.412;9.514;2023-07-28T03:45:31;71865.63;;;21.71
64600;BMP280;6553;48.412;9.514;2023-07-28T03:47:57;71861.78;;;21.70
64600;BMP280;6553;48.412;9.514;2023-07-28T03:50:23;71852.38;;;21.69
64600;BMP280;6553;48.412;9.514;2023-07-28T03:52:50;71855.69;;;21.69
64600;BMP280;6553;48.412;9.514;2023-07-28T03:55:15;71856.22;;;21.70
64600;BMP280;6553;48.412;9.514;2023-07-28T03:57:41;71854.75;;;21.66
64600;BMP280;6553;48.412;9.514;2023-07-28T04:00:08;71856.75;;;21.70
64600;BMP280;6553;48.412;9.514;2023-07-28T04:02:40;71860.16;;;21.68
64600;BMP280;6553;48.412;9.514;2023-07-28T04:05:06;71852.91;;;21.69
64600;BMP280;6553;48.412;9.514;2023-07-28T04:07:32;71859.00;;;21.70
64600;BMP280;6553;48.412;9.514;2023-07-28T04:09:57;71863.47;;;21.69
64600;BMP280;6553;48.412;9.514;2023-07-28T04:12:23;71857.38;;;21.68
64600;BMP280;6553;48.412;9.514;2023-07-28T04:14:49;71854.13;;;21.68
64600;BMP280;6553;48.412;9.514;2023-07-28T04:17:15;71860.69;;;21.69
64600;BMP280;6553;48.412;9.514;2023-07-28T04:19:40;71854.13;;;21.68
64600;BMP280;6553;48.412;9.514;2023-07-28T04:22:06;71856.88;;;21.68
64600;BMP280;6553;48.412;9.514;2023-07-28T04:24:33;71853.66;;;21.65
64600;BMP280;6553;48.412;9.514;2023-07-28T04:27:00;71857.38;;;21.68
64600;BMP280;6553;48.412;9.514;2023-07-28T04:29:25;71847.44;;;21.56
64600;BMP280;6553;48.412;9.514;2023-07-28T04:31:53;71856.44;;;21.65
64600;BMP280;6553;48.412;9.514;2023-07-28T04:34:27;71859.75;;;21.65
64600;BMP280;6553;48.412;9.514;2023-07-28T04:37:15;71856.44;;;21.65
64600;BMP280;6553;48.412;9.514;2023-07-28T04:39:49;71851.44;;;21.65
64600;BMP280;6553;48.412;9.514;2023-07-28T04:42:16;71860.31;;;21.66
64600;BMP280;6553;48.412;9.514;2023-07-28T04:44:45;71853.19;;;21.64
64600;BMP280;6553;48.412;9.514;2023-07-28T04:47:11;71855.28;;;21.66
64600;BMP280;6553;48.412;9.514;2023-07-28T04:49:37;71857.53;;;21.66
64600;BMP280;6553;48.412;9.514;2023-07-28T04:52:24;71851.97;;;21.66
64600;BMP280;6553;48.412;9.514;2023-07-28T04:55:10;71848.66;;;21.65
64600;BMP280;6553;48.412;9.514;2023-07-28T04:57:36;71852.63;;;21.64
64600;BMP280;6553;48.412;9.514;2023-07-28T05:00:02;71854.88;;;21.63
64600;BMP280;6553;48.412;9.514;2023-07-28T05:02:28;71851.44;;;21.65
64600;BMP280;6553;48.412;9.514;2023-07-28T05:04:53;71855.41;;;21.64
64600;BMP280;6553;48.412;9.514;2023-07-28T05:07:19;71856.44;;;21.65
64600;BMP280;6553;48.412;9.514;2023-07-28T05:09:45;71853.81;;;21.62
64600;BMP280;6553;48.412;9.514;2023-07-28T05:12:11;71852.09;;;21.63
64600;BMP280;6553;48.412;9.514;2023-07-28T05:14:42;71852.63;;;21.64
64600;BMP280;6553;48.412;9.514;2023-07-28T05:17:08;71853.81;;;21.62
64600;BMP280;6553;48.412;9.514;2023-07-28T05:20:05;71853.81;;;21.62
64600;BMP280;6553;48.412;9.514;2023-07-28T05:22:46;71853.19;;;21.64
64600;BMP280;6553;48.412;9.514;2023-07-28T05:25:13;71851.44;;;21.65
64600;BMP280;6553;48.412;9.514;2023-07-28T05:27:41;71852.09;;;21.63
64600;BMP280;6553;48.412;9.514;2023-07-28T05:30:08;71849.84;;;21.64
64600;BMP280;6553;48.412;9.514;2023-07-28T05:32:33;71852.63;;;21.64
64600;BMP280;6553;48.412;9.514;2023-07-28T05:35:10;71853.81;;;21.62
64600;BMP280;6553;48.412;9.514;2023-07-28T05:37:35;71855.50;;;21.61
64600;BMP280;6553;48.412;9.514;2023-07-28T05:40:01;71854.22;;;21.65
64600;BMP280;6553;48.412;9.514;2023-07-28T05:42:27;71855.94;;;21.64
64600;BMP280;6553;48.412;9.514;2023-07-28T05:44:54;71853.19;;;21.64
64600;BMP280;6553;48.412;9.514;2023-07-28T05:47:20;71848.66;;;21.65
64600;BMP280;6553;48.412;9.514;2023-07-28T05:49:47;71854.88;;;21.63
64600;BMP280;6553;48.412;9.514;2023-07-28T05:52:13;71856.97;;;21.65
64600;BMP280;6553;48.412;9.514;2023-07-28T05:54:38;71842.13;;;21.51
64600;BMP280;6553;48.412;9.514;2023-07-28T05:57:04;71852.63;;;21.64
64600;BMP280;6553;48.412;9.514;2023-07-28T05:59:30;71854.88;;;21.63
64600;BMP280;6553;48.412;9.514;2023-07-28T06:01:56;71856.97;;;21.65
64600;BMP280;6553;48.412;9.514;2023-07-28T06:04:48;71851.56;;;21.63
64600;BMP280;6553;48.412;9.514;2023-07-28T06:07:14;71853.41;;;21.59
64600;BMP280;6553;48.412;9.514;2023-07-28T06:09:40;71852.63;;;21.64
64600;BMP280;6553;48.412;9.514;2023-07-28T06:12:07;71852.63;;;21.64
64600;BMP280;6553;48.412;9.514;2023-07-28T06:14:33;71853.19;;;21.64
64600;BMP280;6553;48.412;9.514;2023-07-28T06:16:59;71857.66;;;21.63
64600;BMP280;6553;48.412;9.514;2023-07-28T06:19:29;71849.31;;;21.63
64600;BMP280;6553;48.412;9.514;2023-07-28T06:21:55;71851.03;;;21.62
64600;BMP280;6553;48.412;9.514;2023-07-28T06:24:21;71858.19;;;21.64
64600;BMP280;6553;48.412;9.514;2023-07-28T06:26:47;71845.47;;;21.62
64600;BMP280;6553;48.412;9.514;2023-07-28T06:29:12;71854.34;;;21.63
64600;BMP280;6553;48.412;9.514;2023-07-28T06:31:38;71854.75;;;21.66
64600;BMP280;6553;48.412;9.514;2023-07-28T06:34:04;71851.03;;;21.62
64600;BMP280;6553;48.412;9.514;2023-07-28T06:36:30;71858.06;;;21.66
64600;BMP280;6553;48.412;9.514;2023-07-28T06:38:56;71851.97;;;21.66
64600;BMP280;6553;48.412;9.514;2023-07-28T06:41:22;71861.91;;;21.67
64600;BMP280;6553;48.412;9.514;2023-07-28T06:43:54;71859.66;;;21.68
64600;BMP280;6553;48.412;9.514;2023-07-28T06:46:20;71857.94;;;21.69
64600;BMP280;6553;48.412;9.514;2023-07-28T06:48:46;71864.00;;;21.69
64600;BMP280;6553;48.412;9.514;2023-07-28T06:51:15;71860.06;;;21.71
64600;BMP280;6553;48.412;9.514;2023-07-28T06:53:41;71854.75;;;21.66
64600;BMP280;6553;48.412;9.514;2023-07-28T06:56:07;71863.38;;;21.71
64600;BMP280;6553;48.412;9.514;2023-07-28T06:58:33;71862.19;;;21.73
64600;BMP280;6553;48.412;9.514;2023-07-28T07:00:58;71863.25;;;21.74
64600;BMP280;6553;48.412;9.514;2023-07-28T07:03:24;71868.28;;;21.73
64600;BMP280;6553;48.412;9.514;2023-07-28T07:05:50;71862.72;;;21.73
64600;BMP280;6553;48.412;9.514;2023-07-28T07:08:16;71861.63;;;21.72
64600;BMP280;6553;48.412;9.514;2023-07-28T07:10:50;71864.97;;;21.73
64600;BMP280;6553;48.412;9.514;2023-07-28T07:13:17;71866.03;;;21.74
64600;BMP280;6553;48.412;9.514;2023-07-28T07:15:43;71863.66;;;21.77
64600;BMP280;6553;48.412;9.514;2023-07-28T07:18:08;71865.91;;;21.76
64600;BMP280;6553;48.412;9.514;2023-07-28T07:20:36;71871.44;;;21.76
64600;BMP280;6553;48.412;9.514;2023-07-28T07:23:01;71872.53;;;21.77
64600;BMP280;6553;48.412;9.514;2023-07-28T07:25:27;71872.53;;;21.77
64600;BMP280;6553;48.412;9.514;2023-07-28T07:27:53;71866.44;;;21.77
64600;BMP280;6553;48.412;9.514;2023-07-28T07:30:19;71871.88;;;21.79
64600;BMP280;6553;48.412;9.514;2023-07-28T07:32:45;71871.88;;;21.79
64600;BMP280;6553;48.412;9.514;2023-07-28T07:35:10;71861.41;;;21.77
64600;BMP280;6553;48.412;9.514;2023-07-28T07:37:37;71876.91;;;21.79
64600;BMP280;6553;48.412;9.514;2023-07-28T07:40:04;71871.75;;;21.82
64600;BMP280;6553;48.412;9.514;2023-07-28T07:42:47;71871.22;;;21.81
64600;BMP280;6553;48.412;9.514;2023-07-28T07:45:14;71872.81;;;21.83
64600;BMP280;6553;48.412;9.514;2023-07-28T07:47:41;71874.41;;;21.84
64600;BMP280;6553;48.412;9.514;2023-07-28T07:50:08;71877.72;;;21.85
64600;BMP280;6553;48.412;9.514;2023-07-28T07:52:35;71886.59;;;21.85
64600;BMP280;6553;48.412;9.514;2023-07-28T07:55:03;71882.09;;;21.86
64600;BMP280;6553;48.412;9.514;2023-07-28T07:57:29;71876.53;;;21.86
64600;BMP280;6553;48.412;9.514;2023-07-28T07:59:57;71884.75;;;21.89
64600;BMP280;6553;48.412;9.514;2023-07-28T08:02:23;71875.34;;;21.88
64600;BMP280;6553;48.412;9.514;2023-07-28T08:04:49;71884.75;;;21.89
64600;BMP280;6553;48.412;9.514;2023-07-28T08:07:15;71877.59;;;21.87
64600;BMP280;6553;48.412;9.514;2023-07-28T08:09:45;71880.38;;;21.87
64600;BMP280;6553;48.412;9.514;2023-07-28T08:12:12;71881.44;;;21.88
64600;BMP280;6553;48.412;9.514;2023-07-28T08:14:38;71881.56;;;21.86
64600;BMP280;6553;48.412;9.514;2023-07-28T08:17:04;71879.19;;;21.89
64600;BMP280;6553;48.412;9.514;2023-07-28T08:19:29;71883.16;;;21.87
64600;BMP280;6553;48.412;9.514;2023-07-28T08:21:55;71884.75;;;21.89
64600;BMP280;6553;48.412;9.514;2023-07-28T08:24:21;71883.69;;;21.88
64600;BMP280;6553;48.412;9.514;2023-07-28T08:26:47;71883.56;;;21.90
64600;BMP280;6553;48.412;9.514;2023-07-28T08:29:12;71880.78;;;21.90
64600;BMP280;6553;48.412;9.514;2023-07-28T08:31:38;71885.28;;;21.89
64600;BMP280;6553;48.412;9.514;2023-07-28T08:34:04;71880.78;;;21.90
64600;BMP280;6553;48.412;9.514;2023-07-28T08:36:29;71877.47;;;21.90
64600;BMP280;6553;48.412;9.514;2023-07-28T08:38:55;71883.56;;;21.90
64600;BMP280;6553;48.412;9.514;2023-07-28T08:41:21;71883.44;;;21.93
64600;BMP280;6553;48.412;9.514;2023-07-28T08:43:46;71891.75;;;21.93
64600;BMP280;6553;48.412;9.514;2023-07-28T08:46:12;71884.75;;;21.89
64600;BMP280;6553;48.412;9.514;2023-07-28T08:48:39;71887.41;;;21.91
64600;BMP280;6553;48.412;9.514;2023-07-28T08:51:04;71887.41;;;21.91
64600;BMP280;6553;48.412;9.514;2023-07-28T08:53:30;71891.75;;;21.93
64600;BMP280;6553;48.412;9.514;2023-07-28T08:55:56;71883.34;;;21.95
64600;BMP280;6553;48.412;9.514;2023-07-28T08:58:23;71891.69;;;21.95
64600;BMP280;6553;48.412;9.514;2023-07-28T09:00:52;71889.94;;;21.96
64600;BMP280;6553;48.412;9.514;2023-07-28T09:03:19;71893.25;;;21.97
64600;BMP280;6553;48.412;9.514;2023-07-28T09:05:46;71895.91;;;21.99
64600;BMP280;6553;48.412;9.514;2023-07-28T09:08:18;71895.91;;;21.99
64600;BMP280;6553;48.412;9.514;2023-07-28T09:10:48;71894.94;;;21.96
64600;BMP280;6553;48.412;9.514;2023-07-28T09:13:17;71885.44;;;21.97
64600;BMP280;6553;48.412;9.514;2023-07-28T09:15:44;71888.75;;;21.98
64600;BMP280;6553;48.412;9.514;2023-07-28T09:18:13;71891.53;;;21.98
64600;BMP280;6553;48.412;9.514;2023-07-28T09:20:41;71890.88;;;22.00
64600;BMP280;6553;48.412;9.514;2023-07-28T09:23:08;71898.69;;;21.99
64600;BMP280;6553;48.412;9.514;2023-07-28T09:25:36;71890.88;;;22.00
64600;BMP280;6553;48.412;9.514;2023-07-28T09:28:02;71892.47;;;22.01
64600;BMP280;6553;48.412;9.514;2023-07-28T09:30:47;71900.16;;;22.03
64600;BMP280;6553;48.412;9.514;2023-07-28T09:33:29;71892.47;;;22.01
64600;BMP280;6553;48.412;9.514;2023-07-28T09:35:56;71902.81;;;22.06
64600;BMP280;6553;48.412;9.514;2023-07-28T09:38:24;71898.03;;;22.01
64600;BMP280;6553;48.412;9.514;2023-07-28T09:40:53;71903.22;;;22.09
64600;BMP280;6553;48.412;9.514;2023-07-28T09:43:19;71902.69;;;22.08
64600;BMP280;6553;48.412;9.514;2023-07-28T09:45:46;71908.78;;;22.09
64600;BMP280;6553;48.412;9.514;2023-07-28T09:48:14;71901.09;;;22.07
64600;BMP280;6553;48.412;9.514;2023-07-28T09:50:43;71898.31;;;22.07
64600;BMP280;6553;48.412;9.514;2023-07-28T09:53:10;71902.03;;;22.10
64600;BMP280;6553;48.412;9.514;2023-07-28T09:55:40;71908.00;;;22.13
64600;BMP280;6553;48.412;9.514;2023-07-28T09:58:11;71905.75;;;22.14
64600;BMP280;6553;48.412;9.514;2023-07-28T10:00:38;71910.25;;;22.13
64600;BMP280;6553;48.412;9.514;2023-07-28T10:03:04;71904.16;;;22.12
64600;BMP280;6553;48.412;9.514;2023-07-28T10:05:32;71912.38;;;22.15
64600;BMP280;6553;48.412;9.514;2023-07-28T10:08:00;71904.69;;;22.13
64600;BMP280;6553;48.412;9.514;2023-07-28T10:10:27;71910.25;;;22.13
64600;BMP280;6553;48.412;9.514;2023-07-28T10:12:54;71910.66;;;22.16
64600;BMP280;6553;48.412;9.514;2023-07-28T10:15:30;71913.44;;;22.16
64600;BMP280;6553;48.412;9.514;2023-07-28T10:17:58;71908.41;;;22.16
64600;BMP280;6553;48.412;9.514;2023-07-28T10:23:21;71914.63;;;22.14
64600;BMP280;6553;48.412;9.514;2023-07-28T10:25:59;71912.91;;;22.15
64600;BMP280;6553;48.412;9.514;2023-07-28T10:28:39;71916.75;;;22.16
64600;BMP280;6553;48.412;9.514;2023-07-28T10:31:11;71915.56;;;22.18
64600;BMP280;6553;48.412;9.514;2023-07-28T10:33:39;71915.03;;;22.17
64600;BMP280;6553;48.412;9.514;2023-07-28T10:41:35;71914.38;;;22.19
64600;BMP280;6553;48.412;9.514;2023-07-28T10:44:02;71917.16;;;22.19
64600;BMP280;6553;48.412;9.514;2023-07-28T10:46:28;71918.09;;;22.23
64600;BMP280;6553;48.412;9.514;2023-07-28T10:48:54;71918.22;;;22.20
64600;BMP280;6553;48.412;9.514;2023-07-28T10:51:26;71916.38;;;22.24
64600;BMP280;6553;48.412;9.514;2023-07-28T10:54:00;71915.31;;;22.23
64600;BMP280;6553;48.412;9.514;2023-07-28T10:56:28;71920.88;;;22.23
64600;BMP280;6553;48.412;9.514;2023-07-28T10:59:01;71924.19;;;22.23
64600;BMP280;6553;48.412;9.514;2023-07-28T11:01:35;71918.09;;;22.23
64600;BMP280;6553;48.412;9.514;2023-07-28T11:04:21;71918.53;;;22.26
64600;BMP280;6553;48.412;9.514;2023-07-28T11:06:50;71916.38;;;22.24
64600;BMP280;6553;48.412;9.514;2023-07-28T11:09:19;71915.84;;;22.23
64600;BMP280;6553;48.412;9.514;2023-07-28T11:11:46;71923.13;;;22.22
64600;BMP280;6553;48.412;9.514;2023-07-28T11:14:14;71918.22;;;22.20
64600;BMP280;6553;48.412;9.514;2023-07-28T11:16:41;71915.44;;;22.20
64600;BMP280;6553;48.412;9.514;2023-07-28T11:19:13;71923.13;;;22.22
64600;BMP280;6553;48.412;9.514;2023-07-28T11:21:45;71922.59;;;22.22
64600;BMP280;6553;48.412;9.514;2023-07-28T11:24:19;71916.91;;;22.24
64600;BMP280;6553;48.412;9.514;2023-07-28T11:26:45;71924.19;;;22.23
64600;BMP280;6553;48.412;9.514;2023-07-28T11:29:11;71924.59;;;22.26
64600;BMP280;6553;48.412;9.514;2023-07-28T11:31:37;71918.63;;;22.23
64600;BMP280;6553;48.412;9.514;2023-07-28T11:34:16;71915.84;;;22.23
64600;BMP280;6553;48.412;9.514;2023-07-28T11:36:42;71917.56;;;22.22
64600;BMP280;6553;48.412;9.514;2023-07-28T11:39:09;71916.09;;;22.18
64600;BMP280;6553;48.412;9.514;2023-07-28T11:41:37;71913.84;;;22.19
64600;BMP280;6553;48.412;9.514;2023-07-28T11:44:04;71904.81;;;22.10
64600;BMP280;6553;48.412;9.514;2023-07-28T11:46:35;71909.59;;;22.15
64600;BMP280;6553;48.412;9.514;2023-07-28T11:49:13;71909.47;;;22.17
64600;BMP280;6553;48.412;9.514;2023-07-28T11:51:40;71911.72;;;22.17
64600;BMP280;6553;48.412;9.514;2023-07-28T11:54:12;71909.47;;;22.17
64600;BMP280;6553;48.412;9.514;2023-07-28T11:56:45;71912.78;;;22.18
64600;BMP280;6553;48.412;9.514;2023-07-28T11:59:14;71911.72;;;22.17
64600;BMP280;6553;48.412;9.514;2023-07-28T12:02:03;71913.31;;;22.18
64600;BMP280;6553;48.412;9.514;2023-07-28T12:04:40;71917.69;;;22.20
64600;BMP280;6553;48.412;9.514;2023-07-28T12:07:15;71914.91;;;22.20
64600;BMP280;6553;48.412;9.514;2023-07-28T12:12:17;71915.97;;;22.21
64600;BMP280;6553;48.412;9.514;2023-07-28T12:14:43;71919.28;;;22.21
64600;BMP280;6553;48.412;9.514;2023-07-28T12:17:17;71915.44;;;22.20
64600;BMP280;6553;48.412;9.514;2023-07-28T12:19:59;71919.28;;;22.21
64600;BMP280;6553;48.412;9.514;2023-07-28T12:22:27;71917.16;;;22.19
64600;BMP280;6553;48.412;9.514;2023-07-28T12:24:54;71910.13;;;22.15
64600;BMP280;6553;48.412;9.514;2023-07-28T12:27:22;71913.44;;;22.16
64600;BMP280;6553;48.412;9.514;2023-07-28T12:29:50;71910.53;;;22.18
64600;BMP280;6553;48.412;9.514;2023-07-28T12:32:16;71911.59;;;22.19
64600;BMP280;6553;48.412;9.514;2023-07-28T12:34:42;71914.28;;;22.22
64600;BMP280;6553;48.412;9.514;2023-07-28T12:37:08;71913.06;;;22.23
64600;BMP280;6553;48.412;9.514;2023-07-28T12:39:38;71917.56;;;22.22
64600;BMP280;6553;48.412;9.514;2023-07-28T12:42:06;71920.78;;;22.25
64600;BMP280;6553;48.412;9.514;2023-07-28T12:44:32;71926.72;;;22.28
64600;BMP280;6553;48.412;9.514;2023-07-28T12:46:59;71925.56;;;22.30
64600;BMP280;6553;48.412;9.514;2023-07-28T12:49:24;71924.50;;;22.29
64600;BMP280;6553;48.412;9.514;2023-07-28T12:51:50;71922.25;;;22.29
64600;BMP280;6553;48.412;9.514;2023-07-28T12:54:16;71926.19;;;22.28
64600;BMP280;6553;48.412;9.514;2023-07-28T12:56:42;71925.41;;;22.32
64600;BMP280;6553;48.412;9.514;2023-07-28T12:59:08;71928.22;;;22.32
64600;BMP280;6553;48.412;9.514;2023-07-28T13:01:37;71934.31;;;22.33
64600;BMP280;6553;48.412;9.514;2023-07-28T13:04:03;71929.91;;;22.31
64600;BMP280;6553;48.412;9.514;2023-07-28T13:06:29;71923.81;;;22.31
64600;BMP280;6553;48.412;9.514;2023-07-28T13:08:54;71931.00;;;22.32
64600;BMP280;6553;48.412;9.514;2023-07-28T13:11:20;71932.56;;;22.34
64600;BMP280;6553;48.412;9.514;2023-07-28T13:13:46;71929.38;;;22.31
64600;BMP280;6553;48.412;9.514;2023-07-28T13:16:11;71927.66;;;22.32
64600;BMP280;6553;48.412;9.514;2023-07-28T13:18:37;71927.66;;;22.32
64600;BMP280;6553;48.412;9.514;2023-07-28T13:21:05;71932.69;;;22.31
64600;BMP280;6553;48.412;9.514;2023-07-28T13:23:32;71926.50;;;22.33
64600;BMP280;6553;48.412;9.514;2023-07-28T13:25:58;71929.78;;;22.34
64600;BMP280;6553;48.412;9.514;2023-07-28T13:28:23;71931.53;;;22.33
64600;BMP280;6553;48.412;9.514;2023-07-28T13:30:51;71945.97;;;22.33
64600;BMP280;6553;48.412;9.514;2023-07-28T13:33:17;71926.72;;;22.28
64600;BMP280;6553;48.412;9.514;2023-07-28T13:35:43;71923.81;;;22.31
64600;BMP280;6553;48.412;9.514;2023-07-28T13:38:09;71918.94;;;22.29
64600;BMP280;6553;48.412;9.514;2023-07-28T13:40:35;71924.88;;;22.32
64600;BMP280;6553;48.412;9.514;2023-07-28T13:43:01;71927.25;;;22.29
64600;BMP280;6553;48.412;9.514;2023-07-28T13:45:27;71923.81;;;22.31
64600;BMP280;6553;48.412;9.514;2023-07-28T13:47:52;71936.16;;;22.29
64600;BMP280;6553;48.412;9.514;2023-07-28T13:50:18;71926.06;;;22.30
64600;BMP280;6553;48.412;9.514;2023-07-28T13:52:44;71923.94;;;22.28
64600;BMP280;6553;48.412;9.514;2023-07-28T13:55:10;71923.00;;;22.25
64600;BMP280;6553;48.412;9.514;2023-07-28T13:57:36;71924.09;;;22.26
64600;BMP280;6553;48.412;9.514;2023-07-28T14:00:03;71921.81;;;22.26
64600;BMP280;6553;48.412;9.514;2023-07-28T14:02:30;71923.53;;;22.25
64600;BMP280;6553;48.412;9.514;2023-07-28T14:04:56;71920.22;;;22.25
64600;BMP280;6553;48.412;9.514;2023-07-28T14:07:22;71920.34;;;22.22
64600;BMP280;6553;48.412;9.514;2023-07-28T14:09:47;71924.09;;;22.26
64600;BMP280;6553;48.412;9.514;2023-07-28T14:12:13;71920.88;;;22.23
64600;BMP280;6553;48.412;9.514;2023-07-28T14:14:39;71925.25;;;22.24
64600;BMP280;6553;48.412;9.514;2023-07-28T14:17:04;71920.88;;;22.23
64600;BMP280;6553;48.412;9.514;2023-07-28T14:19:30;71921.41;;;22.23
64600;BMP280;6553;48.412;9.514;2023-07-28T14:21:56;71921.94;;;22.24
64600;BMP280;6553;48.412;9.514;2023-07-28T14:24:21;71917.56;;;22.22
64600;BMP280;6553;48.412;9.514;2023-07-28T14:26:47;71918.09;;;22.23
64600;BMP280;6553;48.412;9.514;2023-07-28T14:29:13;71920.34;;;22.22
64600;BMP280;6553;48.412;9.514;2023-07-28T14:31:39;71918.75;;;22.21
64600;BMP280;6553;48.412;9.514;2023-07-28T14:34:04;71921.41;;;22.23
64600;BMP280;6553;48.412;9.514;2023-07-28T14:36:30;71915.31;;;22.23